sensor_id;sensor_type;location;lat;lon;timestamp;P1;durP1;ratioP1;P2;durP2;ratioP2
261;SDS011;114;48.260;10.988;2023-05-23T00:02:04;11.97;;;10.77;;
261;SDS011;114;48.260;10.988;2023-05-23T00:04:33;17.03;;;11.27;;
261;SDS011;114;48.260;10.988;2023-05-23T00:07:01;11.87;;;10.67;;
261;SDS011;114;48.260;10.988;2023-05-23T00:09:27;15.13;;;12.37;;
261;SDS011;114;48.260;10.988;2023-05-23T00:11:53;14.50;;;11.37;;
261;SDS011;114;48.260;10.988;2023-05-23T00:14:19;16.93;;;11.73;;
261;SDS011;114;48.260;10.988;2023-05-23T00:16:45;13.80;;;12.30;;
261;SDS011;114;48.260;10.988;2023-05-23T00:19:13;13.80;;;11.77;;
261;SDS011;114;48.260;10.988;2023-05-23T00:21:40;14.50;;;12.40;;
261;SDS011;114;48.260;10.988;2023-05-23T00:24:15;16.43;;;12.30;;
261;SDS011;114;48.260;10.988;2023-05-23T00:26:43;13.27;;;11.90;;
261;SDS011;114;48.260;10.988;2023-05-23T00:29:09;15.23;;;12.13;;
261;SDS011;114;48.260;10.988;2023-05-23T00:31:43;14.83;;;12.20;;
261;SDS011;114;48.260;10.988;2023-05-23T00:34:11;13.73;;;12.00;;
261;SDS011;114;48.260;10.988;2023-05-23T00:36:37;13.10;;;11.20;;
261;SDS011;114;48.260;10.988;2023-05-23T00:39:05;13.43;;;12.00;;
261;SDS011;114;48.260;10.988;2023-05-23T00:41:32;19.13;;;12.67;;
261;SDS011;114;48.260;10.988;2023-05-23T00:43:58;15.40;;;11.20;;
261;SDS011;114;48.260;10.988;2023-05-23T00:46:28;13.10;;;11.63;;
261;SDS011;114;48.260;10.988;2023-05-23T00:48:54;14.60;;;10.80;;
261;SDS011;114;48.260;10.988;2023-05-23T00:51:20;13.47;;;12.03;;
261;SDS011;114;48.260;10.988;2023-05-23T00:53:46;14.60;;;12.17;;
261;SDS011;114;48.260;10.988;2023-05-23T00:56:13;13.80;;;12.40;;
261;SDS011;114;48.260;10.988;2023-05-23T00:58:39;18.50;;;12.77;;
261;SDS011;114;48.260;10.988;2023-05-23T01:01:05;18.03;;;12.50;;
261;SDS011;114;48.260;10.988;2023-05-23T01:03:31;13.00;;;11.80;;
261;SDS011;114;48.260;10.988;2023-05-23T01:05:57;18.30;;;12.30;;
261;SDS011;114;48.260;10.988;2023-05-23T01:08:23;14.17;;;12.67;;
261;SDS011;114;48.260;10.988;2023-05-23T01:10:49;18.70;;;13.90;;
261;SDS011;114;48.260;10.988;2023-05-23T01:13:19;21.23;;;12.57;;
261;SDS011;114;48.260;10.988;2023-05-23T01:16:10;14.13;;;12.53;;
261;SDS011;114;48.260;10.988;2023-05-23T01:18:46;15.77;;;13.37;;
261;SDS011;114;48.260;10.988;2023-05-23T01:21:18;14.33;;;12.90;;
261;SDS011;114;48.260;10.988;2023-05-23T01:23:54;15.40;;;13.80;;
261;SDS011;114;48.260;10.988;2023-05-23T01:29:02;16.20;;;14.20;;
261;SDS011;114;48.260;10.988;2023-05-23T01:31:35;18.20;;;13.97;;
261;SDS011;114;48.260;10.988;2023-05-23T01:34:03;23.83;;;13.30;;
261;SDS011;114;48.260;10.988;2023-05-23T01:36:32;17.80;;;14.87;;
261;SDS011;114;48.260;10.988;2023-05-23T01:38:59;16.17;;;13.53;;
261;SDS011;114;48.260;10.988;2023-05-23T01:41:25;15.43;;;13.83;;
261;SDS011;114;48.260;10.988;2023-05-23T01:43:52;16.90;;;13.83;;
261;SDS011;114;48.260;10.988;2023-05-23T01:46:19;18.47;;;12.97;;
261;SDS011;114;48.260;10.988;2023-05-23T01:48:46;15.63;;;14.00;;
261;SDS011;114;48.260;10.988;2023-05-23T01:51:13;14.83;;;13.20;;
261;SDS011;114;48.260;10.988;2023-05-23T01:53:39;14.80;;;12.80;;
261;SDS011;114;48.260;10.988;2023-05-23T01:56:05;15.93;;;14.33;;
261;SDS011;114;48.260;10.988;2023-05-23T01:58:32;18.77;;;15.20;;
261;SDS011;114;48.260;10.988;2023-05-23T02:00:58;20.03;;;13.60;;
261;SDS011;114;48.260;10.988;2023-05-23T02:03:24;17.80;;;14.80;;
261;SDS011;114;48.260;10.988;2023-05-23T02:05:50;22.60;;;15.00;;
261;SDS011;114;48.260;10.988;2023-05-23T02:08:16;17.70;;;14.63;;
261;SDS011;114;48.260;10.988;2023-05-23T02:10:42;17.07;;;15.23;;
261;SDS011;114;48.260;10.988;2023-05-23T02:13:07;15.90;;;14.20;;
261;SDS011;114;48.260;10.988;2023-05-23T02:15:33;21.43;;;15.47;;
261;SDS011;114;48.260;10.988;2023-05-23T02:17:59;17.30;;;14.20;;
261;SDS011;114;48.260;10.988;2023-05-23T02:20:27;17.73;;;14.30;;
261;SDS011;114;48.260;10.988;2023-05-23T02:22:52;16.30;;;14.60;;
261;SDS011;114;48.260;10.988;2023-05-23T02:25:18;17.13;;;15.30;;
261;SDS011;114;48.260;10.988;2023-05-23T02:27:44;15.40;;;13.90;;
261;SDS011;114;48.260;10.988;2023-05-23T02:30:10;18.43;;;15.50;;
261;SDS011;114;48.260;10.988;2023-05-23T02:32:36;19.33;;;15.73;;
261;SDS011;114;48.260;10.988;2023-05-23T02:35:02;17.70;;;14.67;;
261;SDS011;114;48.260;10.988;2023-05-23T02:37:28;21.27;;;16.47;;
261;SDS011;114;48.260;10.988;2023-05-23T02:39:54;16.17;;;14.23;;
261;SDS011;114;48.260;10.988;2023-05-23T02:42:20;19.87;;;17.77;;
261;SDS011;114;48.260;10.988;2023-05-23T02:44:46;19.63;;;16.57;;
261;SDS011;114;48.260;10.988;2023-05-23T02:47:12;22.70;;;16.90;;
261;SDS011;114;48.260;10.988;2023-05-23T02:49:37;22.43;;;18.30;;
261;SDS011;114;48.260;10.988;2023-05-23T02:52:03;21.03;;;17.60;;
261;SDS011;114;48.260;10.988;2023-05-23T02:54:29;23.27;;;18.37;;
261;SDS011;114;48.260;10.988;2023-05-23T02:56:55;22.00;;;18.33;;
261;SDS011;114;48.260;10.988;2023-05-23T02:59:21;37.73;;;18.53;;
261;SDS011;114;48.260;10.988;2023-05-23T03:01:47;22.03;;;18.40;;
261;SDS011;114;48.260;10.988;2023-05-23T03:04:13;23.47;;;18.70;;
261;SDS011;114;48.260;10.988;2023-05-23T03:06:39;23.77;;;19.43;;
261;SDS011;114;48.260;10.988;2023-05-23T03:09:06;22.47;;;19.33;;
261;SDS011;114;48.260;10.988;2023-05-23T03:11:32;27.13;;;19.90;;
261;SDS011;114;48.260;10.988;2023-05-23T03:13:58;27.90;;;18.17;;
261;SDS011;114;48.260;10.988;2023-05-23T03:16:24;23.73;;;20.00;;
261;SDS011;114;48.260;10.988;2023-05-23T03:18:50;20.80;;;18.43;;
261;SDS011;114;48.260;10.988;2023-05-23T03:21:15;20.53;;;18.43;;
261;SDS011;114;48.260;10.988;2023-05-23T03:23:41;24.80;;;19.47;;
261;SDS011;114;48.260;10.988;2023-05-23T03:26:07;24.50;;;19.93;;
261;SDS011;114;48.260;10.988;2023-05-23T03:28:33;21.53;;;18.33;;
261;SDS011;114;48.260;10.988;2023-05-23T03:30:58;21.03;;;18.80;;
261;SDS011;114;48.260;10.988;2023-05-23T03:33:24;22.70;;;18.77;;
261;SDS011;114;48.260;10.988;2023-05-23T03:35:50;25.70;;;21.23;;
261;SDS011;114;48.260;10.988;2023-05-23T03:38:16;25.17;;;20.70;;
261;SDS011;114;48.260;10.988;2023-05-23T03:40:42;26.70;;;22.27;;
261;SDS011;114;48.260;10.988;2023-05-23T03:43:08;27.30;;;20.83;;
261;SDS011;114;48.260;10.988;2023-05-23T03:45:34;26.77;;;21.83;;
261;SDS011;114;48.260;10.988;2023-05-23T03:48:00;30.20;;;22.80;;
261;SDS011;114;48.260;10.988;2023-05-23T03:50:26;29.37;;;22.73;;
261;SDS011;114;48.260;10.988;2023-05-23T03:52:52;26.97;;;22.03;;
261;SDS011;114;48.260;10.988;2023-05-23T03:55:19;28.07;;;22.27;;
261;SDS011;114;48.260;10.988;2023-05-23T03:57:47;24.73;;;20.30;;
261;SDS011;114;48.260;10.988;2023-05-23T04:00:13;24.20;;;21.10;;
261;SDS011;114;48.260;10.988;2023-05-23T04:02:39;28.53;;;20.53;;
261;SDS011;114;48.260;10.988;2023-05-23T04:05:05;25.57;;;20.70;;
261;SDS011;114;48.260;10.988;2023-05-23T04:07:34;32.23;;;22.90;;
261;SDS011;114;48.260;10.988;2023-05-23T04:10:01;35.73;;;22.70;;
261;SDS011;114;48.260;10.988;2023-05-23T04:12:27;28.97;;;22.73;;
261;SDS011;114;48.260;10.988;2023-05-23T04:14:55;33.70;;;24.70;;
261;SDS011;114;48.260;10.988;2023-05-23T04:17:22;29.80;;;23.17;;
261;SDS011;114;48.260;10.988;2023-05-23T04:19:48;30.83;;;22.13;;
261;SDS011;114;48.260;10.988;2023-05-23T04:22:14;33.23;;;23.97;;
261;SDS011;114;48.260;10.988;2023-05-23T04:24:40;29.50;;;23.97;;
261;SDS011;114;48.260;10.988;2023-05-23T04:27:06;35.30;;;22.80;;
261;SDS011;114;48.260;10.988;2023-05-23T04:29:33;32.00;;;24.13;;
261;SDS011;114;48.260;10.988;2023-05-23T04:32:00;33.87;;;20.80;;
261;SDS011;114;48.260;10.988;2023-05-23T04:34:26;30.10;;;23.50;;
261;SDS011;114;48.260;10.988;2023-05-23T04:36:52;25.80;;;21.40;;
261;SDS011;114;48.260;10.988;2023-05-23T04:39:21;25.47;;;20.40;;
261;SDS011;114;48.260;10.988;2023-05-23T04:41:47;23.13;;;20.33;;
261;SDS011;114;48.260;10.988;2023-05-23T04:44:14;30.73;;;22.53;;
261;SDS011;114;48.260;10.988;2023-05-23T04:46:39;25.30;;;20.57;;
261;SDS011;114;48.260;10.988;2023-05-23T04:49:09;30.80;;;20.70;;
261;SDS011;114;48.260;10.988;2023-05-23T04:51:35;31.20;;;21.33;;
261;SDS011;114;48.260;10.988;2023-05-23T04:54:01;30.00;;;21.83;;
261;SDS011;114;48.260;10.988;2023-05-23T04:56:26;24.80;;;20.07;;
261;SDS011;114;48.260;10.988;2023-05-23T04:58:53;23.80;;;19.43;;
261;SDS011;114;48.260;10.988;2023-05-23T05:01:20;25.27;;;21.07;;
261;SDS011;114;48.260;10.988;2023-05-23T05:03:48;24.47;;;21.20;;
261;SDS011;114;48.260;10.988;2023-05-23T05:06:15;33.83;;;21.07;;
261;SDS011;114;48.260;10.988;2023-05-23T05:08:41;24.87;;;19.67;;
261;SDS011;114;48.260;10.988;2023-05-23T05:11:07;29.10;;;21.47;;
261;SDS011;114;48.260;10.988;2023-05-23T05:13:34;26.00;;;21.13;;
261;SDS011;114;48.260;10.988;2023-05-23T05:16:00;29.70;;;21.43;;
261;SDS011;114;48.260;10.988;2023-05-23T05:18:28;35.53;;;21.70;;
261;SDS011;114;48.260;10.988;2023-05-23T05:20:54;32.10;;;21.73;;
261;SDS011;114;48.260;10.988;2023-05-23T05:23:23;33.10;;;21.87;;
261;SDS011;114;48.260;10.988;2023-05-23T05:25:50;29.90;;;22.47;;
261;SDS011;114;48.260;10.988;2023-05-23T05:28:15;31.73;;;22.63;;
261;SDS011;114;48.260;10.988;2023-05-23T05:30:41;31.53;;;22.40;;
261;SDS011;114;48.260;10.988;2023-05-23T05:33:08;27.20;;;22.70;;
261;SDS011;114;48.260;10.988;2023-05-23T05:35:34;29.97;;;23.97;;
261;SDS011;114;48.260;10.988;2023-05-23T05:38:00;29.07;;;22.93;;
261;SDS011;114;48.260;10.988;2023-05-23T05:40:29;30.53;;;24.27;;
261;SDS011;114;48.260;10.988;2023-05-23T05:42:55;31.53;;;23.63;;
261;SDS011;114;48.260;10.988;2023-05-23T05:45:21;33.60;;;25.40;;
261;SDS011;114;48.260;10.988;2023-05-23T05:47:47;31.23;;;25.13;;
261;SDS011;114;48.260;10.988;2023-05-23T05:50:13;36.73;;;24.17;;
261;SDS011;114;48.260;10.988;2023-05-23T05:52:39;44.87;;;25.53;;
261;SDS011;114;48.260;10.988;2023-05-23T05:55:06;35.63;;;26.37;;
261;SDS011;114;48.260;10.988;2023-05-23T05:57:37;46.43;;;27.77;;
261;SDS011;114;48.260;10.988;2023-05-23T06:00:06;37.30;;;26.57;;
261;SDS011;114;48.260;10.988;2023-05-23T06:02:39;34.30;;;23.97;;
261;SDS011;114;48.260;10.988;2023-05-23T06:05:11;42.07;;;28.13;;
261;SDS011;114;48.260;10.988;2023-05-23T06:07:40;40.50;;;27.93;;
261;SDS011;114;48.260;10.988;2023-05-23T06:10:06;44.27;;;28.00;;
261;SDS011;114;48.260;10.988;2023-05-23T06:12:33;39.53;;;27.93;;
261;SDS011;114;48.260;10.988;2023-05-23T06:14:59;37.90;;;27.47;;
261;SDS011;114;48.260;10.988;2023-05-23T06:17:25;40.10;;;27.17;;
261;SDS011;114;48.260;10.988;2023-05-23T06:19:51;43.63;;;29.40;;
261;SDS011;114;48.260;10.988;2023-05-23T06:22:17;42.60;;;29.03;;
261;SDS011;114;48.260;10.988;2023-05-23T06:24:43;35.73;;;28.10;;
261;SDS011;114;48.260;10.988;2023-05-23T06:27:09;42.50;;;29.40;;
261;SDS011;114;48.260;10.988;2023-05-23T06:29:34;37.23;;;29.60;;
261;SDS011;114;48.260;10.988;2023-05-23T06:32:01;39.63;;;28.30;;
261;SDS011;114;48.260;10.988;2023-05-23T06:34:27;46.73;;;30.20;;
261;SDS011;114;48.260;10.988;2023-05-23T06:36:53;44.30;;;29.97;;
261;SDS011;114;48.260;10.988;2023-05-23T06:39:19;36.80;;;27.03;;
261;SDS011;114;48.260;10.988;2023-05-23T06:41:45;41.50;;;29.87;;
261;SDS011;114;48.260;10.988;2023-05-23T06:44:11;42.27;;;29.10;;
261;SDS011;114;48.260;10.988;2023-05-23T06:46:37;40.93;;;28.60;;
261;SDS011;114;48.260;10.988;2023-05-23T06:49:02;49.03;;;29.20;;
261;SDS011;114;48.260;10.988;2023-05-23T06:51:28;41.97;;;28.00;;
261;SDS011;114;48.260;10.988;2023-05-23T06:53:54;38.23;;;26.40;;
261;SDS011;114;48.260;10.988;2023-05-23T06:56:21;38.90;;;26.30;;
261;SDS011;114;48.260;10.988;2023-05-23T06:58:47;31.87;;;24.30;;
261;SDS011;114;48.260;10.988;2023-05-23T07:01:13;37.33;;;28.20;;
261;SDS011;114;48.260;10.988;2023-05-23T07:03:39;44.40;;;27.57;;
261;SDS011;114;48.260;10.988;2023-05-23T07:06:06;31.33;;;25.40;;
261;SDS011;114;48.260;10.988;2023-05-23T07:08:32;41.30;;;28.77;;
261;SDS011;114;48.260;10.988;2023-05-23T07:10:57;42.33;;;26.00;;
261;SDS011;114;48.260;10.988;2023-05-23T07:13:23;34.50;;;26.20;;
261;SDS011;114;48.260;10.988;2023-05-23T07:15:49;40.50;;;28.03;;
261;SDS011;114;48.260;10.988;2023-05-23T07:18:14;37.83;;;24.60;;
261;SDS011;114;48.260;10.988;2023-05-23T07:20:40;38.60;;;27.57;;
261;SDS011;114;48.260;10.988;2023-05-23T07:23:06;32.93;;;24.50;;
261;SDS011;114;48.260;10.988;2023-05-23T07:25:31;35.53;;;26.20;;
261;SDS011;114;48.260;10.988;2023-05-23T07:27:57;41.80;;;27.70;;
261;SDS011;114;48.260;10.988;2023-05-23T07:30:23;36.70;;;28.70;;
261;SDS011;114;48.260;10.988;2023-05-23T07:32:49;45.57;;;28.57;;
261;SDS011;114;48.260;10.988;2023-05-23T07:35:17;41.23;;;28.33;;
261;SDS011;114;48.260;10.988;2023-05-23T07:37:42;37.23;;;28.63;;
261;SDS011;114;48.260;10.988;2023-05-23T07:40:08;43.37;;;28.30;;
261;SDS011;114;48.260;10.988;2023-05-23T07:42:34;45.93;;;29.07;;
261;SDS011;114;48.260;10.988;2023-05-23T07:45:01;46.53;;;27.07;;
261;SDS011;114;48.260;10.988;2023-05-23T07:47:27;40.13;;;26.97;;
261;SDS011;114;48.260;10.988;2023-05-23T07:49:53;36.90;;;26.50;;
261;SDS011;114;48.260;10.988;2023-05-23T07:52:19;38.23;;;29.03;;
261;SDS011;114;48.260;10.988;2023-05-23T07:54:45;43.53;;;27.93;;
261;SDS011;114;48.260;10.988;2023-05-23T07:57:10;37.50;;;29.00;;
261;SDS011;114;48.260;10.988;2023-05-23T07:59:36;44.93;;;29.47;;
261;SDS011;114;48.260;10.988;2023-05-23T08:02:02;43.97;;;29.00;;
261;SDS011;114;48.260;10.988;2023-05-23T08:04:28;38.87;;;28.10;;
261;SDS011;114;48.260;10.988;2023-05-23T08:06:55;34.03;;;26.93;;
261;SDS011;114;48.260;10.988;2023-05-23T08:09:21;38.03;;;26.13;;
261;SDS011;114;48.260;10.988;2023-05-23T08:11:48;39.27;;;27.83;;
261;SDS011;114;48.260;10.988;2023-05-23T08:14:13;36.40;;;26.43;;
261;SDS011;114;48.260;10.988;2023-05-23T08:16:39;37.77;;;25.47;;
261;SDS011;114;48.260;10.988;2023-05-23T08:19:05;32.27;;;24.73;;
261;SDS011;114;48.260;10.988;2023-05-23T08:21:31;33.60;;;24.73;;
261;SDS011;114;48.260;10.988;2023-05-23T08:23:57;37.77;;;26.87;;
261;SDS011;114;48.260;10.988;2023-05-23T08:26:22;34.60;;;24.83;;
261;SDS011;114;48.260;10.988;2023-05-23T08:28:48;31.77;;;23.60;;
261;SDS011;114;48.260;10.988;2023-05-23T08:31:14;36.10;;;24.40;;
261;SDS011;114;48.260;10.988;2023-05-23T08:33:40;36.60;;;25.27;;
261;SDS011;114;48.260;10.988;2023-05-23T08:36:06;31.67;;;21.70;;
261;SDS011;114;48.260;10.988;2023-05-23T08:38:32;36.97;;;25.60;;
261;SDS011;114;48.260;10.988;2023-05-23T08:40:59;33.63;;;24.10;;
261;SDS011;114;48.260;10.988;2023-05-23T08:43:26;28.60;;;23.87;;
261;SDS011;114;48.260;10.988;2023-05-23T08:45:52;35.20;;;24.77;;
261;SDS011;114;48.260;10.988;2023-05-23T08:48:19;33.43;;;26.13;;
261;SDS011;114;48.260;10.988;2023-05-23T08:50:45;41.13;;;25.40;;
261;SDS011;114;48.260;10.988;2023-05-23T08:53:14;38.20;;;26.30;;
261;SDS011;114;48.260;10.988;2023-05-23T08:55:47;35.60;;;26.63;;
261;SDS011;114;48.260;10.988;2023-05-23T08:58:15;37.07;;;27.77;;
261;SDS011;114;48.260;10.988;2023-05-23T09:00:43;40.63;;;26.57;;
261;SDS011;114;48.260;10.988;2023-05-23T09:03:10;35.83;;;25.50;;
261;SDS011;114;48.260;10.988;2023-05-23T09:05:38;42.07;;;26.50;;
261;SDS011;114;48.260;10.988;2023-05-23T09:08:04;33.70;;;25.80;;
261;SDS011;114;48.260;10.988;2023-05-23T09:10:29;42.13;;;26.80;;
261;SDS011;114;48.260;10.988;2023-05-23T09:12:55;33.70;;;25.10;;
261;SDS011;114;48.260;10.988;2023-05-23T09:15:22;26.80;;;21.90;;
261;SDS011;114;48.260;10.988;2023-05-23T09:17:48;32.67;;;23.90;;
261;SDS011;114;48.260;10.988;2023-05-23T09:20:15;27.80;;;22.70;;
261;SDS011;114;48.260;10.988;2023-05-23T09:22:48;39.63;;;24.33;;
261;SDS011;114;48.260;10.988;2023-05-23T09:25:14;29.77;;;22.00;;
261;SDS011;114;48.260;10.988;2023-05-23T09:27:40;29.00;;;22.87;;
261;SDS011;114;48.260;10.988;2023-05-23T09:30:06;36.30;;;23.43;;
261;SDS011;114;48.260;10.988;2023-05-23T09:32:33;30.33;;;22.07;;
261;SDS011;114;48.260;10.988;2023-05-23T09:35:00;31.73;;;21.80;;
261;SDS011;114;48.260;10.988;2023-05-23T09:37:33;26.93;;;22.30;;
261;SDS011;114;48.260;10.988;2023-05-23T09:40:11;34.47;;;23.43;;
261;SDS011;114;48.260;10.988;2023-05-23T09:42:41;31.77;;;23.97;;
261;SDS011;114;48.260;10.988;2023-05-23T09:45:08;29.97;;;21.33;;
261;SDS011;114;48.260;10.988;2023-05-23T09:47:35;36.50;;;22.63;;
261;SDS011;114;48.260;10.988;2023-05-23T09:50:01;28.80;;;20.27;;
261;SDS011;114;48.260;10.988;2023-05-23T09:52:32;33.40;;;21.90;;
261;SDS011;114;48.260;10.988;2023-05-23T09:55:04;27.90;;;22.23;;
261;SDS011;114;48.260;10.988;2023-05-23T09:57:32;40.50;;;25.00;;
261;SDS011;114;48.260;10.988;2023-05-23T10:00:02;30.43;;;22.83;;
261;SDS011;114;48.260;10.988;2023-05-23T10:08:13;29.33;;;21.23;;
261;SDS011;114;48.260;10.988;2023-05-23T10:13:21;24.37;;;18.70;;
261;SDS011;114;48.260;10.988;2023-05-23T10:15:51;24.60;;;18.20;;
261;SDS011;114;48.260;10.988;2023-05-23T10:18:24;23.10;;;16.90;;
261;SDS011;114;48.260;10.988;2023-05-23T10:20:53;21.23;;;17.10;;
261;SDS011;114;48.260;10.988;2023-05-23T10:23:26;21.50;;;17.80;;
261;SDS011;114;48.260;10.988;2023-05-23T10:25:52;18.90;;;16.80;;
261;SDS011;114;48.260;10.988;2023-05-23T10:28:19;22.10;;;16.93;;
261;SDS011;114;48.260;10.988;2023-05-23T10:30:45;23.77;;;16.10;;
261;SDS011;114;48.260;10.988;2023-05-23T10:33:12;21.40;;;16.47;;
261;SDS011;114;48.260;10.988;2023-05-23T10:35:52;22.80;;;16.03;;
261;SDS011;114;48.260;10.988;2023-05-23T10:38:35;18.13;;;15.93;;
261;SDS011;114;48.260;10.988;2023-05-23T10:41:09;19.23;;;15.60;;
261;SDS011;114;48.260;10.988;2023-05-23T10:46:49;18.13;;;14.23;;
261;SDS011;114;48.260;10.988;2023-05-23T10:49:19;17.47;;;14.47;;
261;SDS011;114;48.260;10.988;2023-05-23T10:51:47;17.27;;;13.53;;
261;SDS011;114;48.260;10.988;2023-05-23T10:54:16;17.93;;;14.70;;
261;SDS011;114;48.260;10.988;2023-05-23T10:56:43;16.47;;;14.27;;
261;SDS011;114;48.260;10.988;2023-05-23T10:59:11;15.70;;;12.77;;
261;SDS011;114;48.260;10.988;2023-05-23T11:01:45;17.80;;;13.67;;
261;SDS011;114;48.260;10.988;2023-05-23T11:04:14;15.17;;;13.67;;
261;SDS011;114;48.260;10.988;2023-05-23T11:14:19;13.87;;;11.77;;
261;SDS011;114;48.260;10.988;2023-05-23T11:16:58;16.87;;;12.30;;
261;SDS011;114;48.260;10.988;2023-05-23T11:19:26;17.13;;;13.53;;
261;SDS011;114;48.260;10.988;2023-05-23T11:21:53;12.97;;;11.67;;
261;SDS011;114;48.260;10.988;2023-05-23T11:24:21;13.00;;;11.27;;
261;SDS011;114;48.260;10.988;2023-05-23T11:26:54;13.37;;;12.00;;
261;SDS011;114;48.260;10.988;2023-05-23T11:29:24;11.47;;;10.30;;
261;SDS011;114;48.260;10.988;2023-05-23T11:31:54;15.70;;;11.70;;
261;SDS011;114;48.260;10.988;2023-05-23T11:34:20;14.83;;;10.53;;
261;SDS011;114;48.260;10.988;2023-05-23T11:36:46;13.27;;;11.13;;
261;SDS011;114;48.260;10.988;2023-05-23T11:39:20;14.97;;;12.03;;
261;SDS011;114;48.260;10.988;2023-05-23T11:42:04;23.30;;;11.60;;
261;SDS011;114;48.260;10.988;2023-05-23T11:44:30;15.20;;;11.50;;
261;SDS011;114;48.260;10.988;2023-05-23T11:47:02;14.23;;;11.03;;
261;SDS011;114;48.260;10.988;2023-05-23T11:49:35;13.30;;;11.23;;
261;SDS011;114;48.260;10.988;2023-05-23T11:52:03;13.97;;;12.57;;
261;SDS011;114;48.260;10.988;2023-05-23T11:54:30;17.87;;;14.10;;
261;SDS011;114;48.260;10.988;2023-05-23T11:56:56;17.87;;;13.70;;
261;SDS011;114;48.260;10.988;2023-05-23T11:59:22;13.97;;;11.53;;
261;SDS011;114;48.260;10.988;2023-05-23T12:01:53;18.93;;;12.67;;
261;SDS011;114;48.260;10.988;2023-05-23T12:04:19;21.57;;;12.33;;
261;SDS011;114;48.260;10.988;2023-05-23T12:06:46;13.57;;;11.10;;
261;SDS011;114;48.260;10.988;2023-05-23T12:09:12;14.17;;;10.63;;
261;SDS011;114;48.260;10.988;2023-05-23T12:11:39;11.03;;;9.97;;
261;SDS011;114;48.260;10.988;2023-05-23T12:14:13;17.60;;;9.20;;
261;SDS011;114;48.260;10.988;2023-05-23T12:16:41;14.00;;;10.67;;
261;SDS011;114;48.260;10.988;2023-05-23T12:19:08;19.17;;;11.50;;
261;SDS011;114;48.260;10.988;2023-05-23T12:21:47;12.13;;;10.40;;
261;SDS011;114;48.260;10.988;2023-05-23T12:24:22;15.60;;;10.70;;
261;SDS011;114;48.260;10.988;2023-05-23T12:26:52;16.03;;;10.90;;
261;SDS011;114;48.260;10.988;2023-05-23T12:29:20;13.87;;;10.70;;
261;SDS011;114;48.260;10.988;2023-05-23T12:31:49;13.00;;;11.70;;
261;SDS011;114;48.260;10.988;2023-05-23T12:34:16;12.93;;;11.17;;
261;SDS011;114;48.260;10.988;2023-05-23T12:36:41;16.87;;;11.10;;
261;SDS011;114;48.260;10.988;2023-05-23T12:39:08;14.00;;;11.83;;
261;SDS011;114;48.260;10.988;2023-05-23T12:41:34;12.53;;;11.20;;
261;SDS011;114;48.260;10.988;2023-05-23T12:44:00;16.27;;;10.93;;
261;SDS011;114;48.260;10.988;2023-05-23T12:46:27;11.50;;;10.30;;
261;SDS011;114;48.260;10.988;2023-05-23T12:48:53;13.83;;;10.53;;
261;SDS011;114;48.260;10.988;2023-05-23T12:51:19;15.73;;;11.80;;
261;SDS011;114;48.260;10.988;2023-05-23T12:53:45;14.03;;;11.90;;
261;SDS011;114;48.260;10.988;2023-05-23T12:56:11;12.87;;;11.57;;
261;SDS011;114;48.260;10.988;2023-05-23T12:58:37;14.50;;;10.90;;
261;SDS011;114;48.260;10.988;2023-05-23T13:01:03;14.30;;;11.07;;
261;SDS011;114;48.260;10.988;2023-05-23T13:03:29;13.77;;;11.13;;
261;SDS011;114;48.260;10.988;2023-05-23T13:05:55;13.73;;;10.80;;
261;SDS011;114;48.260;10.988;2023-05-23T13:08:21;14.73;;;12.10;;
261;SDS011;114;48.260;10.988;2023-05-23T13:10:47;16.20;;;11.97;;
261;SDS011;114;48.260;10.988;2023-05-23T13:13:13;13.50;;;10.83;;
261;SDS011;114;48.260;10.988;2023-05-23T13:15:39;34.00;;;13.00;;
261;SDS011;114;48.260;10.988;2023-05-23T13:18:06;14.40;;;12.27;;
261;SDS011;114;48.260;10.988;2023-05-23T13:20:31;13.03;;;10.80;;
261;SDS011;114;48.260;10.988;2023-05-23T13:22:58;17.00;;;10.23;;
261;SDS011;114;48.260;10.988;2023-05-23T13:25:25;16.63;;;11.30;;
261;SDS011;114;48.260;10.988;2023-05-23T13:27:51;11.93;;;10.73;;
261;SDS011;114;48.260;10.988;2023-05-23T13:30:18;14.20;;;10.33;;
261;SDS011;114;48.260;10.988;2023-05-23T13:32:45;10.47;;;9.37;;
261;SDS011;114;48.260;10.988;2023-05-23T13:35:11;12.50;;;11.20;;
261;SDS011;114;48.260;10.988;2023-05-23T13:37:37;13.87;;;10.80;;
261;SDS011;114;48.260;10.988;2023-05-23T13:40:03;16.47;;;10.70;;
261;SDS011;114;48.260;10.988;2023-05-23T13:42:30;13.83;;;10.43;;
261;SDS011;114;48.260;10.988;2023-05-23T13:44:55;11.97;;;10.70;;
261;SDS011;114;48.260;10.988;2023-05-23T13:47:21;11.10;;;10.00;;
261;SDS011;114;48.260;10.988;2023-05-23T13:49:47;14.90;;;11.77;;
261;SDS011;114;48.260;10.988;2023-05-23T13:52:13;12.00;;;10.77;;
261;SDS011;114;48.260;10.988;2023-05-23T13:54:39;21.73;;;11.63;;
261;SDS011;114;48.260;10.988;2023-05-23T13:57:05;13.90;;;11.53;;
261;SDS011;114;48.260;10.988;2023-05-23T13:59:32;17.33;;;13.17;;
261;SDS011;114;48.260;10.988;2023-05-23T14:01:57;14.03;;;11.80;;
261;SDS011;114;48.260;10.988;2023-05-23T14:04:23;15.70;;;10.17;;
261;SDS011;114;48.260;10.988;2023-05-23T14:06:49;15.00;;;10.87;;
261;SDS011;114;48.260;10.988;2023-05-23T14:09:15;13.17;;;9.73;;
261;SDS011;114;48.260;10.988;2023-05-23T14:11:41;12.43;;;8.87;;
261;SDS011;114;48.260;10.988;2023-05-23T14:14:07;11.20;;;9.47;;
261;SDS011;114;48.260;10.988;2023-05-23T14:16:33;10.40;;;8.73;;
261;SDS011;114;48.260;10.988;2023-05-23T14:18:59;8.60;;;7.67;;
261;SDS011;114;48.260;10.988;2023-05-23T14:21:24;9.65;;;8.63;;
261;SDS011;114;48.260;10.988;2023-05-23T14:23:50;8.38;;;7.70;;
261;SDS011;114;48.260;10.988;2023-05-23T14:26:16;7.75;;;6.80;;
261;SDS011;114;48.260;10.988;2023-05-23T14:28:41;13.00;;;7.72;;
261;SDS011;114;48.260;10.988;2023-05-23T14:31:07;9.55;;;7.60;;
261;SDS011;114;48.260;10.988;2023-05-23T14:33:33;9.93;;;7.82;;
261;SDS011;114;48.260;10.988;2023-05-23T14:35:59;10.95;;;7.35;;
261;SDS011;114;48.260;10.988;2023-05-23T14:38:25;12.20;;;7.35;;
261;SDS011;114;48.260;10.988;2023-05-23T14:40:51;12.65;;;7.88;;
261;SDS011;114;48.260;10.988;2023-05-23T14:43:18;10.63;;;7.23;;
261;SDS011;114;48.260;10.988;2023-05-23T14:45:44;9.13;;;7.68;;
261;SDS011;114;48.260;10.988;2023-05-23T14:48:10;11.17;;;7.17;;
261;SDS011;114;48.260;10.988;2023-05-23T14:50:36;7.80;;;7.17;;
261;SDS011;114;48.260;10.988;2023-05-23T14:53:02;11.63;;;8.87;;
261;SDS011;114;48.260;10.988;2023-05-23T14:55:28;10.00;;;8.57;;
261;SDS011;114;48.260;10.988;2023-05-23T14:57:54;11.07;;;8.23;;
261;SDS011;114;48.260;10.988;2023-05-23T15:00:20;8.53;;;7.73;;
261;SDS011;114;48.260;10.988;2023-05-23T15:02:46;9.23;;;8.37;;
261;SDS011;114;48.260;10.988;2023-05-23T15:05:12;9.70;;;8.20;;
261;SDS011;114;48.260;10.988;2023-05-23T15:07:39;22.27;;;8.97;;
261;SDS011;114;48.260;10.988;2023-05-23T15:10:05;15.60;;;9.57;;
261;SDS011;114;48.260;10.988;2023-05-23T15:12:32;11.93;;;8.50;;
261;SDS011;114;48.260;10.988;2023-05-23T15:14:58;11.27;;;7.90;;
261;SDS011;114;48.260;10.988;2023-05-23T15:17:27;10.17;;;8.70;;
261;SDS011;114;48.260;10.988;2023-05-23T15:19:54;11.07;;;8.30;;
261;SDS011;114;48.260;10.988;2023-05-23T15:22:19;10.70;;;8.00;;
261;SDS011;114;48.260;10.988;2023-05-23T15:24:45;8.17;;;7.40;;